Latest Weather Observations for Proserpine

IDQ60801

Issued at 8:32 pm EST Friday 26 February 2021 (issued every 10 minutes, with the page automatically refreshed every 10 minutes)

About weather observations | Map of weather stations | Latest weather observations for QLD | Other Formats
Station Details ID: 033247 Name: PROSERPINE AIRPORT Lat: -20.49 Lon: 148.56 Height: 19.7 m
Data from the previous 72 hours. | See also: Recent months at Proserpine
Date/Time
EST
Temp
°C
App
Temp
°C
Dew
Point
°C
Rel
Hum
%
Delta-T
°C
Wind Press
QNH
hPa
Press
MSL
hPa
Rain since
9am
mm
Dir  Spd
km/h
Gust
km/h
Spd
kts
Gust
kts
26/08:30pm 22.7 25.7 22.0 96 0.5 SSE 9 11 5 6 1008.8 1008.7 15.0
26/08:18pm 22.7 25.7 22.0 96 0.5 SSE 9 13 5 7 1008.6 1008.5 14.8
26/08:00pm 22.6 25.6 21.9 96 0.5 SE 9 13 5 7 1008.5 1008.4 14.6
26/07:43pm 22.5 25.4 21.7 95 0.5 ESE 9 13 5 7 1008.4 1008.3 14.0
26/07:30pm 22.6 25.4 21.6 94 0.7 ESE 9 11 5 6 1008.3 1008.2 13.6
26/07:00pm 22.6 24.9 21.4 93 0.8 SSE 11 15 6 8 1008.1 1008.0 13.2
26/06:30pm 23.1 26.2 22.1 94 0.7 SSE 9 13 5 7 1007.9 1007.8 12.8
26/06:00pm 23.0 25.2 21.8 93 0.8 SE 13 17 7 9 1007.5 1007.4 12.6
26/05:30pm 23.3 25.6 22.1 93 0.8 SSE 13 17 7 9 1007.2 1007.1 12.4
26/05:00pm 23.7 26.8 22.1 91 1.1 ESE 9 13 5 7 1007.1 1007.0 10.6
26/04:30pm 23.7 24.5 21.8 89 1.3 SE 20 28 11 15 1006.6 1006.5 10.4
26/04:00pm 23.9 25.6 22.3 91 1.1 ESE 17 28 9 15 1006.8 1006.7 10.4
26/03:30pm 24.5 27.2 23.5 94 0.7 E 15 24 8 13 1006.5 1006.4 10.2
26/03:24pm 24.5 27.9 23.3 93 0.8 E 11 17 6 9 1006.4 1006.3 9.8
26/03:00pm 24.5 27.4 23.1 92 0.9 ENE 13 17 7 9 1006.4 1006.3 8.2
26/02:54pm 24.7 28.1 23.3 92 1.0 NE 11 17 6 9 1006.5 1006.4 7.4
26/02:36pm 24.9 30.2 23.1 90 1.2 CALM 0 0 0 0 1006.7 1006.6 5.6
26/02:30pm 24.9 30.2 23.0 89 1.3 CALM 0 2 0 1 1006.7 1006.6 5.0
26/02:29pm 24.8 30.0 22.9 89 1.3 CALM 0 6 0 3 1006.7 1006.6 5.0
26/02:00pm 24.7 28.8 22.9 90 1.2 SW 6 7 3 4 1006.7 1006.6 4.6
26/01:48pm 24.7 29.2 22.9 90 1.2 S 4 7 2 4 1006.7 1006.6 4.6
26/01:30pm 24.7 27.0 22.8 89 1.3 E 15 24 8 13 1006.9 1006.8 4.2
26/01:24pm 24.9 27.0 22.4 86 1.7 E 15 24 8 13 1007.0 1006.9 3.4
26/01:03pm 26.3 29.7 24.0 87 1.6 E 13 19 7 10 1007.0 1006.9 2.4
26/01:00pm 26.4 29.8 24.1 87 1.6 E 13 19 7 10 1006.9 1006.8 2.4
26/12:50pm 26.8 29.4 23.9 84 2.0 ESE 17 26 9 14 1007.0 1006.9 2.2
26/12:30pm 27.6 31.1 24.2 82 2.4 SE 13 17 7 9 1006.9 1006.8 1.8
26/12:00pm 26.1 30.1 23.8 87 1.6 ESE 9 15 5 8 1007.3 1007.2 1.8
26/11:30am 26.1 28.7 24.0 88 1.4 ENE 17 24 9 13 1007.5 1007.4 1.2
26/11:00am 26.7 28.4 23.4 82 2.3 ESE 20 32 11 17 1007.7 1007.6 0.2
26/10:30am 28.0 29.2 23.2 75 3.3 ESE 22 32 12 17 1007.7 1007.6 0.0
26/10:00am 27.8 30.3 24.4 82 2.4 ESE 19 26 10 14 1007.8 1007.7 0.0
26/09:30am 28.1 29.1 23.5 76 3.2 ESE 24 33 13 18 1007.7 1007.6 0.0
26/09:00am 28.0 29.2 23.8 78 2.9 ESE 24 32 13 17 1007.7 1007.6 2.8
26/08:30am 27.6 31.0 24.6 84 2.1 SE 15 20 8 11 1007.7 1007.6 2.8
26/08:00am 26.6 31.5 25.2 92 1.0 SSE 9 15 5 8 1007.4 1007.3 2.8
26/07:30am 25.3 29.4 23.9 92 1.0 S 9 13 5 7 1007.2 1007.1 2.8
26/07:18am 25.0 28.9 23.6 92 1.0 S 9 13 5 7 1007.0 1006.9 2.8
26/07:00am 24.8 27.9 23.6 93 0.8 SSE 13 17 7 9 1006.7 1006.6 2.8
26/06:58am 24.7 27.8 23.5 93 0.8 SSE 13 17 7 9 1006.7 1006.6 2.8
26/06:30am 24.7 28.1 23.3 92 1.0 S 11 15 6 8 1006.5 1006.4 2.2
26/06:00am 24.7 27.9 23.1 91 1.1 SSE 11 15 6 8 1006.2 1006.1 2.2
26/05:30am 24.7 27.4 22.9 90 1.2 S 13 17 7 9 1005.8 1005.7 2.0
26/05:00am 24.8 27.6 23.0 90 1.2 SSE 13 19 7 10 1005.5 1005.4 2.0
26/04:30am 24.5 28.2 23.3 93 0.8 SSW 9 11 5 6 1005.4 1005.3 2.0
26/04:00am 24.5 28.5 23.1 92 0.9 SW 7 11 4 6 1005.5 1005.4 2.0
26/03:30am 24.9 28.9 23.1 90 1.2 S 7 9 4 5 1005.5 1005.4 2.0
26/03:00am 25.3 29.7 23.5 90 1.2 SE 6 11 3 6 1005.7 1005.6 2.0
26/02:30am 25.2 28.9 23.3 89 1.3 ESE 9 11 5 6 1006.2 1006.1 2.0
26/02:00am 25.3 29.0 23.2 88 1.4 ESE 9 15 5 8 1006.6 1006.5 2.0
26/01:30am 25.0 28.7 23.2 90 1.2 SE 9 11 5 6 1007.0 1006.9 2.0
26/01:00am 25.1 29.4 23.7 92 1.0 S 7 9 4 5 1007.3 1007.2 2.0
26/12:30am 25.3 30.0 23.9 92 1.0 S 6 11 3 6 1007.7 1007.6 2.0
26/12:00am 25.8 30.4 24.2 91 1.1 SE 7 9 4 5 1008.1 1008.0 2.0
 
Date/Time
EST
Temp
°C
App
Temp
°C
Dew
Point
°C
Rel
Hum
%
Delta-T
°C
Wind Press
QNH
hPa
Press
MSL
hPa
Rain since
9am
mm
Dir  Spd
km/h
Gust
km/h
Spd
kts
Gust
kts
25/11:53pm 25.7 29.8 23.9 90 1.2 SE 9 17 5 9 1008.2 1008.1 2.0
25/11:42pm 25.7 27.3 23.9 90 1.2 SSE 22 39 12 21 1008.3 1008.2 1.8
25/11:30pm 26.4 30.0 23.7 85 1.9 SE 11 22 6 12 1008.3 1008.2 1.4
25/11:00pm 26.6 28.9 22.0 76 3.1 E 13 17 7 9 1008.5 1008.4 1.4
25/10:30pm 26.2 29.1 23.1 83 2.1 ESE 13 17 7 9 1008.5 1008.4 1.4
25/10:00pm 26.6 30.2 23.1 81 2.4 ESE 9 13 5 7 1008.7 1008.6 1.4
25/09:30pm 26.6 29.2 22.7 79 2.6 ESE 13 15 7 8 1008.7 1008.6 1.4
25/09:00pm 26.5 29.4 23.2 82 2.3 ESE 13 17 7 9 1008.3 1008.2 1.4
25/08:30pm 26.3 29.1 23.0 82 2.2 ESE 13 17 7 9 1008.1 1008.0 1.4
25/08:00pm 26.7 30.0 23.2 81 2.4 ESE 11 15 6 8 1007.7 1007.6 1.4
25/07:30pm 26.6 29.6 22.7 79 2.6 ESE 11 17 6 9 1007.5 1007.4 1.4
25/07:00pm 27.1 30.1 22.7 77 3.0 ESE 11 17 6 9 1007.3 1007.2 1.4
25/06:30pm 27.5 29.0 22.7 75 3.3 ESE 19 26 10 14 1006.7 1006.6 1.4
25/06:00pm 28.1 29.1 22.1 70 4.1 ESE 20 28 11 15 1006.4 1006.3 1.4
25/05:30pm 28.4 29.8 22.9 72 3.7 ESE 20 32 11 17 1006.4 1006.3 1.4
25/05:00pm 28.6 28.8 22.1 68 4.4 ESE 24 35 13 19 1006.0 1005.9 1.4
25/04:30pm 28.8 29.9 22.3 68 4.4 ESE 20 32 11 17 1005.9 1005.8 1.4
25/04:00pm 29.6 29.6 21.0 60 5.7 ESE 22 33 12 18 1005.9 1005.8 1.4
25/03:30pm 30.3 30.5 22.7 64 5.2 ESE 26 37 14 20 1006.1 1006.0 1.4
25/03:00pm 30.2 30.0 22.1 62 5.5 ESE 26 33 14 18 1006.0 1005.9 1.4
25/02:30pm 30.2 31.0 23.1 65 4.9 ESE 24 35 13 19 1006.2 1006.1 1.4
25/02:00pm 30.3 31.1 22.5 63 5.3 ESE 22 33 12 18 1006.6 1006.5 1.4
25/01:30pm 30.5 30.3 22.1 61 5.7 ESE 26 33 14 18 1006.8 1006.7 1.4
25/01:00pm 30.5 31.3 23.2 65 5.0 ESE 24 32 13 17 1007.4 1007.3 1.4
25/12:30pm 30.4 30.9 22.0 60 5.7 SE 22 32 12 17 1007.9 1007.8 1.4
25/12:00pm 30.4 31.8 22.8 64 5.2 ESE 20 32 11 17 1008.4 1008.3 1.4
25/11:30am 30.0 31.3 22.7 65 5.0 ESE 20 33 11 18 1008.8 1008.7 1.4
25/11:00am 30.2 31.8 22.9 65 5.0 E 19 30 10 16 1009.1 1009.0 1.4
25/10:30am 29.5 31.1 22.2 65 4.9 E 17 28 9 15 1009.3 1009.2 1.4
25/10:00am 28.6 32.8 24.8 80 2.7 E 11 19 6 10 1009.6 1009.5 1.4
25/09:45am 26.6 31.8 23.5 83 2.1 ENE 2 6 1 3 1009.5 1009.4 1.4
25/09:30am 26.1 29.0 23.2 84 2.0 NE 13 22 7 12 1009.5 1009.4 1.4
25/09:27am 26.0 28.7 22.9 83 2.1 NE 13 22 7 12 1009.5 1009.4 1.0
25/09:00am 28.4 30.8 22.9 72 3.8 ESE 15 20 8 11 1009.2 1009.1 0.0
25/08:30am 28.3 32.5 23.4 75 3.4 SSE 7 13 4 7 1008.9 1008.8 0.0
25/08:00am 27.3 31.3 23.7 81 2.5 S 9 11 5 6 1008.8 1008.7 0.0
25/07:30am 26.0 30.0 23.7 87 1.6 SSW 9 15 5 8 1008.3 1008.2 0.0
25/07:00am 24.5 28.1 23.1 92 0.9 SSW 9 11 5 6 1008.1 1008.0 0.0
25/06:30am 23.7 26.7 22.7 94 0.7 S 11 15 6 8 1007.4 1007.3 0.0
25/06:00am 23.3 26.9 22.3 94 0.7 S 7 11 4 6 1007.2 1007.1 0.0
25/05:30am 23.2 26.3 22.2 94 0.7 SSW 9 9 5 5 1007.1 1007.0 0.0
25/05:00am 23.5 28.5 22.5 94 0.7 CALM 0 0 0 0 1006.9 1006.8 0.0
25/04:30am 23.7 27.6 22.5 93 0.8 SW 6 7 3 4 1006.8 1006.7 0.0
25/04:00am 23.8 27.1 22.6 93 0.8 S 9 11 5 6 1006.5 1006.4 0.0
25/03:30am 24.1 27.3 23.1 94 0.7 S 11 15 6 8 1006.4 1006.3 0.0
25/03:00am 24.2 27.7 22.8 92 0.9 S 9 9 5 5 1006.5 1006.4 0.0
25/02:30am 24.4 27.8 22.7 90 1.1 SSW 9 11 5 6 1006.9 1006.8 0.0
25/02:00am 24.6 28.7 23.2 92 1.0 W 7 9 4 5 1007.4 1007.3 0.0
25/01:30am 24.5 29.8 23.1 92 0.9 CALM 0 0 0 0 1007.7 1007.6 0.0
25/01:00am 24.2 29.2 22.5 90 1.1 CALM 0 0 0 0 1007.9 1007.8 0.0
25/12:30am 24.8 28.7 22.5 87 1.5 SE 6 7 3 4 1008.2 1008.1 0.0
25/12:00am 25.3 28.5 22.4 84 2.0 E 9 13 5 7 1008.6 1008.5 0.0
 
Date/Time
EST
Temp
°C
App
Temp
°C
Dew
Point
°C
Rel
Hum
%
Delta-T
°C
Wind Press
QNH
hPa
Press
MSL
hPa
Rain since
9am
mm
Dir  Spd
km/h
Gust
km/h
Spd
kts
Gust
kts
24/11:30pm 25.5 28.7 22.4 83 2.1 ESE 9 13 5 7 1008.9 1008.8 0.0
24/11:00pm 25.5 28.5 22.0 81 2.3 ESE 9 13 5 7 1009.1 1009.0 0.0
24/10:30pm 26.2 29.1 22.5 80 2.5 E 11 15 6 8 1008.9 1008.8 0.0
24/10:00pm 26.5 29.5 22.6 79 2.6 E 11 15 6 8 1008.9 1008.8 0.0
24/09:30pm 26.8 29.4 22.6 78 2.8 ESE 13 19 7 10 1008.8 1008.7 0.0
24/09:00pm 26.8 29.8 23.3 81 2.4 ESE 13 17 7 9 1008.7 1008.6 0.0
24/08:30pm 26.4 29.9 23.5 84 2.0 ESE 11 15 6 8 1008.6 1008.5 0.0
24/08:00pm 27.1 30.1 23.3 80 2.6 E 13 19 7 10 1008.4 1008.3 0.0
24/07:30pm 27.0 30.6 23.7 82 2.3 E 11 13 6 7 1008.3 1008.2 0.0
24/07:00pm 27.6 30.5 23.2 77 3.0 ESE 13 20 7 11 1007.9 1007.8 0.0
24/06:30pm 27.8 30.3 23.8 79 2.8 ESE 17 20 9 11 1007.5 1007.4 0.0
24/06:00pm 28.6 31.0 23.7 75 3.4 ESE 17 28 9 15 1007.3 1007.2 0.0
24/05:30pm 29.1 30.5 23.5 72 3.9 ESE 22 33 12 18 1006.9 1006.8 0.0
24/05:00pm 29.4 31.0 23.8 72 3.9 ESE 22 32 12 17 1006.6 1006.5 0.0
24/04:30pm 30.3 31.8 23.7 68 4.6 ESE 22 33 12 18 1006.6 1006.5 0.0
24/04:00pm 30.4 31.5 24.3 70 4.3 ESE 26 37 14 20 1006.5 1006.4 0.0
24/03:30pm 30.5 31.6 23.7 67 4.7 ESE 24 35 13 19 1006.5 1006.4 0.0
24/03:00pm 30.8 31.2 23.7 66 4.9 ESE 28 35 15 19 1006.6 1006.5 0.0
24/02:30pm 31.0 31.7 22.9 62 5.6 ESE 24 32 13 17 1006.9 1006.8 0.0
24/02:00pm 31.2 31.9 23.6 64 5.3 ESE 26 35 14 19 1007.3 1007.2 0.0
24/01:30pm 31.6 32.5 23.4 61 5.7 ESE 24 33 13 18 1007.6 1007.5 0.0
24/01:00pm 31.3 32.4 23.1 61 5.7 ESE 22 32 12 17 1008.2 1008.1 0.0
24/12:30pm 31.3 32.2 23.4 63 5.5 ESE 24 35 13 19 1008.6 1008.5 0.0
24/12:00pm 30.9 32.2 24.1 67 4.7 ESE 24 32 13 17 1009.0 1008.9 0.0
24/11:30am 30.7 32.0 24.1 68 4.6 ESE 24 32 13 17 1009.3 1009.2 0.0
24/11:00am 30.8 32.1 24.0 67 4.7 ESE 24 32 13 17 1009.7 1009.6 0.0
24/10:30am 30.4 31.3 23.3 66 4.9 ESE 24 32 13 17 1009.7 1009.6 0.0
24/10:00am 30.7 33.0 24.4 69 4.4 ESE 20 28 11 15 1009.7 1009.6 0.0
24/09:30am 29.6 31.6 24.0 72 3.9 SE 20 30 11 16 1009.7 1009.6 0.0
24/09:10am 30.0 32.4 24.6 73 3.8 SE 20 28 11 15 1009.7 1009.6 0.0
24/09:00am 29.4 31.8 24.3 74 3.6 SE 19 24 10 13 1009.6 1009.5 0.0
24/08:30am 27.7 32.1 24.5 83 2.2 ESE 9 17 5 9 1009.6 1009.5 0.0
24/08:29am 27.8 32.5 25.0 85 2.0 ESE 9 15 5 8 1009.6 1009.5 0.0
24/08:10am 27.4 31.9 25.2 88 1.5 SE 11 15 6 8 1009.5 1009.4 0.0
24/08:00am 27.7 32.4 25.5 88 1.5 SE 11 15 6 8 1009.4 1009.3 0.0
24/07:30am 27.0 31.6 25.4 91 1.1 SSE 11 17 6 9 1009.0 1008.9 0.0
24/07:00am 26.4 31.8 25.4 94 0.7 SE 7 9 4 5 1008.7 1008.6 0.0
24/06:56am 26.3 31.9 25.4 95 0.6 SE 6 9 3 5 1008.6 1008.5 0.0
24/06:30am 25.4 30.8 24.5 95 0.6 S 4 7 2 4 1008.2 1008.1 0.0
24/06:00am 25.0 30.5 24.1 95 0.6 S 2 7 1 4 1007.7 1007.6 0.0
24/05:30am 25.2 29.5 24.3 95 0.6 SSW 9 9 5 5 1007.3 1007.2 0.0
24/05:00am 25.4 30.4 24.5 95 0.6 S 6 9 3 5 1007.1 1007.0 0.0
24/04:30am 25.5 31.7 24.6 95 0.6 CALM 0 6 0 3 1006.9 1006.8 0.0
24/04:00am 25.5 31.7 24.6 95 0.6 CALM 0 2 0 1 1006.8 1006.7 0.0
24/03:30am 25.5 30.5 24.8 96 0.5 WSW 7 9 4 5 1006.7 1006.6 0.0
24/03:00am 25.2 31.3 24.5 96 0.5 CALM 0 0 0 0 1006.7 1006.6 0.0
24/02:40am 24.9 30.7 24.0 95 0.6 CALM 0 2 0 1 1006.6 1006.5 0.0
24/02:30am 24.8 30.6 23.9 95 0.6 CALM 0 0 0 0 1006.6 1006.5 0.0
24/02:12am 24.8 29.8 23.9 95 0.6 NNW 4 7 2 4 1006.8 1006.7 0.0
24/02:00am 25.0 29.8 24.1 95 0.6 NNW 6 7 3 4 1006.8 1006.7 0.0
24/01:33am 25.1 31.0 24.1 94 0.7 CALM 0 0 0 0 1007.0 1006.9 0.0
24/01:30am 25.1 31.0 24.1 94 0.7 CALM 0 0 0 0 1007.1 1007.0 0.0
24/01:19am 25.2 31.2 24.2 94 0.7 CALM 0 0 0 0 1007.1 1007.0 0.0
24/01:00am 25.4 31.5 24.4 94 0.7 CALM 0 0 0 0 1007.3 1007.2 0.0
24/12:46am 25.6 31.8 24.6 94 0.7 CALM 0 4 0 2 1007.3 1007.2 0.0
24/12:30am 25.5 31.3 24.5 94 0.7 NNE 2 6 1 3 1007.4 1007.3 0.0
24/12:04am 25.9 32.3 24.9 94 0.7 CALM 0 0 0 0 1007.7 1007.6 0.0
24/12:00am 25.8 32.1 24.8 94 0.7 CALM 0 0 0 0 1007.8 1007.7 0.0
 
Date/Time
EST
Temp
°C
App
Temp
°C
Dew
Point
°C
Rel
Hum
%
Delta-T
°C
Wind Press
QNH
hPa
Press
MSL
hPa
Rain since
9am
mm
Dir  Spd
km/h
Gust
km/h
Spd
kts
Gust
kts
23/11:30pm 25.8 30.9 24.6 93 0.8 NNW 6 7 3 4 1007.7 1007.6 0.0
23/11:00pm 26.1 30.8 24.9 93 0.8 N 9 11 5 6 1007.3 1007.2 0.0
23/10:30pm 26.2 30.9 25.0 93 0.8 N 9 13 5 7 1007.5 1007.4 0.0
23/10:00pm 26.2 31.3 24.6 91 1.1 NW 6 7 3 4 1007.6 1007.5 0.0
23/09:30pm 26.4 31.5 24.6 90 1.2 SW 6 6 3 3 1007.5 1007.4 0.0
23/09:00pm 26.7 31.8 24.7 89 1.4 WSW 6 7 3 4 1006.9 1006.8 0.0

Other formats

Comma delimited format used in spreadsheet applications
http://www.bom.gov.au/fwo/IDQ60801/IDQ60801.94365.axf

JavaScript Object Notation format (JSON) in row-major order
http://www.bom.gov.au/fwo/IDQ60801/IDQ60801.94365.json

Data quality

Most of these data are generated automatically and are frequently updated. Quality checks on data are not normally performed. It is possible for incorrect values to appear. Refer to information at About Latest Weather Observations and please check the disclaimer before using these data.